Tiempo atmosférico en la estación meteorológica de Logroño Aeropuerto, La Rioja (353 m.)



Fecha
DESCASC
Temp. máxima en grados centígrados (hora)
DESCASC
Temp. mínima en grados centígrados (hora)
DESCASC
Temp. media en grados centígrados
DESCASC
Racha de viento máxima en m/sg (hora)
DESCASC
Velocidad máxima media en intervalos de 10 minutos(hora)
DESCASC
Precipitaciones diarias en mm
DESCASC
Precipitaciones de 00:00 a 06:00 en mm
DESCASC
Precipitaciones de 06:00 a 12:00 en mm
DESCASC
Precipitaciones de 12:00 a 18:00 en mm
DESCASC
Precipitaciones de 18:00 a 24:00 en mm
DESCASC
21-02-2021 12.8 (18:40) 8.6 (05:30) 10.7 16.94 (02:30) 11.67 (02:00) 0 0 0 0 0
20-02-2021 17.1 (17:50) 7.6 (07:20) 12.4 15.28 (12:10) 11.11 (12:30) 0 0 0 0 0
19-02-2021 20.2 (17:20) 5.8 (07:00) 13 8.33 (20:00) 6.39 (22:30) 0 0 0 0 0
18-02-2021 18.2 (17:10) 2.4 (00:00) 10.3 7.22 (12:10) 5.56 (12:10) 0 0 0 0 0
17-02-2021 13.7 (17:00) 4.1 (00:00) 8.9 5 (13:00) 3.89 (13:00) 0 0 0 0 0
16-02-2021 13.4 (16:20) 7.6 (00:00) 10.5 11.67 (00:50) 8.61 (10:10) 0 0 0 0 0
15-02-2021 9.7 (17:30) 6.4 (00:00) 8 11.67 (23:00) 8.61 (23:00) 0 0 0 0 0
14-02-2021 13.9 (15:10) 0.6 (00:00) 7.2 12.78 (15:10) 10 (16:10) 0 0 0 0 0
13-02-2021 13.4 (17:20) 5 (00:00) 9.2 10.83 (12:30) 6.67 (14:00) 0 0 0 0 0
12-02-2021 13.4 (14:00) 8 (00:00) 10.7 12.5 (11:30) 7.22 (15:20) 2.9 0.3 1.1 1.5 0
11-02-2021 17.7 (15:00) 2.4 (00:00) 10.1 8.33 (15:30) 4.72 (15:50) 0 0 0 0 0
10-02-2021 13.7 (16:40) 3 (00:00) 8.3 10.83 (14:20) 6.11 (17:20) 5.6 3.2 2.4 0 0
09-02-2021 13.2 (14:50) 4.5 (00:00) 8.8 12.5 (15:00) 7.78 (15:00) 0.7 0 0 0.5 0.2
08-02-2021 13.1 (15:50) 4.7 (00:00) 8.9 13.33 (16:00) 7.22 (15:20) 0.4 0.4 0 0 0
07-02-2021 10.4 (14:50) 3.3 (00:00) 6.8 9.72 (12:10) 5.56 (13:10) 1.7 0 0 0 1.7
06-02-2021 10.7 (00:40) 6 (00:00) 8.3 10.83 (13:20) 6.67 (03:20) 8.8 0 2.5 5.6 0.7
05-02-2021 15.7 (15:00) 5.5 (00:00) 10.6 10.83 (15:40) 7.78 (16:10) 0.3 0.3 0 0 0
04-02-2021 16.5 (15:30) 7.8 (00:00) 12.2 8.89 (15:40) 6.67 (15:40) 0 0 0 0 0
03-02-2021 14.9 (15:00) 4.3 (00:00) 9.6 5.83 (11:30) 4.44 (11:30) 0.8 0 0 0 0.8
02-02-2021 18.3 (15:10) 5.6 (00:00) 11.9 9.17 (16:40) 5.28 (16:40) 0 0 0 0 0
01-02-2021 17.7 (15:50) 10.4 (00:00) 14.1 13.89 (00:10) 7.5 (03:10) 0 0 0 0 0
31-01-2021 -- (--) -- (--) -- -- (--) -- (--) -- -- -- 0 0
30-01-2021 -- (--) -- (--) -- -- (--) -- (--) -- 2.8 0 -- --
29-01-2021 18.1 (15:10) 7.1 (00:00) 12.6 10.83 (15:40) 5.83 (15:40) 0 0 0 0 0
28-01-2021 18.9 (16:40) 4.1 (00:00) 11.5 11.39 (13:30) 6.11 (15:50) 0 0 0 0 0
27-01-2021 19.2 (16:20) 8.6 (00:00) 13.9 10.28 (12:10) 6.94 (12:10) 0.2 0.2 0 0 0
26-01-2021 14.9 (16:30) -0.1 (00:00) 7.4 7.78 (15:00) 5 (14:00) 0 0 0 0 0
25-01-2021 10.2 (02:30) 6.2 (00:00) 8.2 6.11 (17:00) 3.61 (02:30) 23.3 3.7 18.1 1.5 0

Gráficas

Temp. máximas Temp. mínimas Temp. medias Precipitaciones Rachas de viento máximas Velocidades máximas media en intervalos de 10 minutos

Datos horarios

Fecha y hora oficial Temperatura (ºC) Velocidad del viento (km/h) Dirección del viento Racha (km/h) Dirección de racha Precipitación (mm) Presión (hPa) Tendencia (hPa) Humedad (%)
2021-02-23 23:00:00 9.1 16 Nordeste 21 Nordeste 0 990.5 1.1 84
2021-02-23 22:00:00 9.1 6 Nordeste 15 Norte 0 990.2 1.6 82
2021-02-23 21:00:00 9.2 12 Nordeste 24 Este 0 989.8 1.4 80
2021-02-23 20:00:00 11.7 15 Este 42 Este 0 989.4 1.3 71
2021-02-23 19:00:00 12.6 29 Este 39 Este 0 988.6 0.5 66
2021-02-23 18:00:00 14.2 26 Este 46 Este 0 988.4 -- 63
2021-02-23 17:00:00 15.1 32 Este 42 Este 0 988.1 -- 58
2021-02-23 16:00:00 15.4 35 Este 45 Este 0 988.1 -- 56
2021-02-23 15:00:00 15.5 31 Este 46 Este 0 987.9 -- 58
2021-02-23 14:00:00 14.7 33 Este 42 Este 0 988.2 -- 64
2021-02-23 13:00:00 13.7 28 Este 39 Este 0 989 -- 68
2021-02-23 12:00:00 12.7 27 Este 37 Este 0 988.9 -- 70
2021-02-23 11:00:00 10.3 22 Este 28 Este 0 989.2 -- 78
2021-02-23 10:00:00 8 16 Este 21 Este 0 988.7 -- 90
2021-02-23 09:00:00 5.2 0 Calma -- -- 0 988.4 -- 99
2021-02-23 08:00:00 5.4 0 Calma 11 Este 0 987.6 -- 100
2021-02-23 07:00:00 5.7 9 Sudeste 13 Sudeste 0 986.8 -- 100
2021-02-23 06:00:00 4.5 2 Este 5 Oeste 0 986.4 -- 99
2021-02-23 05:00:00 4.5 3 Nordeste 8 Este 0 986 -- 99
2021-02-23 04:00:00 5.1 8 Este -- -- 0 985.4 -- 97
2021-02-23 03:00:00 6.2 3 Sur 8 Oeste 0 985.2 -- 96
2021-02-23 02:00:00 6.6 2 Oeste 5 Oeste 0 984.6 -- 97
2021-02-23 01:00:00 6.4 2 Norte 9 Este 0 983.9 -- 97
2021-02-23 00:00:00 6.1 2 Sudoeste 5 Oeste 0 983.5 -- 99
2021-02-22 23:00:00 6.5 2 Este 4 Sur 0 983 -- 96
2021-02-22 22:00:00 7.3 0 Calma 4 Este 0 982.8 -- 93
2021-02-22 21:00:00 7.9 4 Noroeste 11 Noroeste 0 982.4 -- 90
2021-02-22 20:00:00 7.8 8 Oeste 15 Oeste 0 981.8 -- 90
2021-02-22 19:00:00 7.8 12 Oeste 15 Oeste 0 980.8 -- 91
2021-02-22 18:00:00 7.9 8 Oeste 17 Sudoeste 0 979.9 -- 89
2021-02-22 17:00:00 7.7 10 Oeste 22 Oeste 0.1 978.8 -- 91
2021-02-22 16:00:00 8.6 9 Oeste 21 Oeste 0 977.9 -- 80
2021-02-22 15:00:00 8.4 13 Oeste 28 Oeste 0 977.2 -- 78
2021-02-22 14:00:00 7.8 14 Oeste 26 Oeste 0 976.8 -- 81
2021-02-22 13:00:00 7.1 14 Oeste 24 Oeste 0 976.9 -- 85
2021-02-22 12:00:00 -- -- -- -- -- -- -- -- --
2021-02-22 11:00:00 -- -- -- -- -- -- -- -- --
2021-02-22 10:00:00 5.3 8 Oeste 13 Oeste 0.8 975.4 -- 94
2021-02-22 09:00:00 5.2 9 Oeste 15 Oeste 0.1 973.9 -- 91
2021-02-22 08:00:00 4.7 11 Oeste 22 Oeste 0.1 972.3 -- 91
2021-02-22 07:00:00 4.5 15 Oeste 30 Oeste 0.6 971.7 3.2 91
2021-02-22 06:00:00 4.2 16 Oeste 32 Oeste 3.6 970.6 -- 93
2021-02-22 05:00:00 4.5 20 Oeste 35 Sudoeste 4 969.4 -- 93
2021-02-22 04:00:00 5.5 19 Oeste 39 Oeste 5.5 968.5 -- 95
2021-02-22 03:00:00 10.2 9 Oeste 24 Oeste 0.7 966.7 -- 91
2021-02-22 02:00:00 10.6 11 Nordeste 22 Este 0 965.9 -- 86
2021-02-22 01:00:00 11.4 9 Este 28 Este 0 965.7 -- 79
2021-02-22 00:00:00 11.6 18 Este 32 Este 0 965.6 -- 78
2021-02-21 23:00:00 11.5 19 Este 26 Nordeste 0 965.6 -- 82
2021-02-21 22:00:00 12 14 Nordeste 42 Este 0 965.4 1.1 78
2021-02-21 21:00:00 12.7 25 Este 41 Este 0 964.9 -- 73
2021-02-21 20:00:00 12.8 28 Este 45 Sudeste 0 964.7 -- 71
2021-02-21 19:00:00 12.8 29 Este 45 Este 0 964.3 -- 71
2021-02-21 18:00:00 12.5 19 Este 33 Este 0 964.4 -- 74
2021-02-21 17:00:00 11.6 13 Este 28 Este 0 964.5 -- 79
2021-02-21 16:00:00 11.7 18 Este 41 Este 0 965 -- 76
2021-02-21 15:00:00 11.5 29 Este 50 Este 0 964.9 -- 75
2021-02-21 14:00:00 11.2 33 Este 48 Este 0 965.2 -- 74
2021-02-21 13:00:00 11.1 35 Este 58 Este 0 965.9 -- 75
2021-02-21 12:00:00 11.7 33 Este 42 Este 0 966.4 -- 72
2021-02-21 11:00:00 11.5 25 Este 41 Este 0 967 -- 69
2021-02-21 10:00:00 9.8 20 Este 30 Este 0 967.2 -- 77
2021-02-21 09:00:00 8.8 23 Este 50 Este 0 967.1 -- 80
2021-02-21 08:00:00 8.6 31 Este 50 Este 0 967.1 -- 82
2021-02-21 07:00:00 8.7 33 Este 55 Este 0 966.9 -- 81
2021-02-21 06:00:00 8.6 33 Este 48 Este 0 966.7 -- 81
2021-02-21 05:00:00 8.7 26 Este 45 Este 0 967.6 -- 80
2021-02-21 04:00:00 9.2 35 Este 52 Este 0 967.7 -- 77
2021-02-21 03:00:00 9.4 29 Este 61 Este 0 968.2 -- 76
2021-02-21 02:00:00 9.8 42 Este 55 Este 0 968.1 -- 74
2021-02-21 01:00:00 10.5 37 Este 55 Este 0 968.4 -- 69
2021-02-21 00:00:00 11.3 31 Este 48 Este 0 968.6 -- 66
2021-02-20 23:00:00 12.3 32 Este 46 Este 0 968.4 -- 63
2021-02-20 22:00:00 13 32 Este 41 Este 0 968.3 -- 63
2021-02-20 21:00:00 13.7 14 Este 33 Nordeste 0 968.7 -- 63
2021-02-20 20:00:00 14.7 27 Este 37 Este 0 968.4 -- 59
2021-02-20 19:00:00 15.5 25 Este 35 Este 0 967.8 -- 58
2021-02-20 18:00:00 16.9 27 Este 39 Este 0 967.2 -- 55
2021-02-20 17:00:00 15.5 21 Este 46 Este 0 967.3 -- 57
2021-02-20 16:00:00 15 36 Este 55 Este 0 967.8 -- 55
2021-02-20 15:00:00 14.4 39 Este 50 Este 0 967.9 -- 55
2021-02-20 14:00:00 14.5 30 Este 45 Este 0 968.8 -- 55
2021-02-20 13:00:00 14.3 33 Nordeste 55 Este 0 969.6 -- 59
2021-02-20 12:00:00 13.8 36 Este 52 Este 0 970.2 -- 60
2021-02-20 11:00:00 12.3 30 Este 45 Nordeste 0 970.5 -- 64
2021-02-20 10:00:00 10.7 30 Este 46 Este 0 970.5 -- 69
2021-02-20 09:00:00 8.7 31 Este 42 Este 0 970.6 0.1 76
2021-02-20 08:00:00 8.6 29 Este 39 Este 0 970 -- 74
2021-02-20 07:00:00 7.9 21 Este 37 Este 0 970.6 -- 80
2021-02-20 06:00:00 8.6 31 Este 42 Este 0 970.5 -- 77
2021-02-20 05:00:00 8.8 25 Este 35 Este 0 970.2 -- 76
2021-02-20 04:00:00 9.3 26 Este 33 Este 0 970.5 -0.9 74
2021-02-20 03:00:00 10 22 Nordeste 37 Este 0 971.2 -- 72
2021-02-20 02:00:00 10.9 31 Este 39 Este 0 971.6 -- 67
2021-02-20 01:00:00 11.2 27 Nordeste 39 Este 0 971.4 -- 67
2021-02-20 00:00:00 11.5 17 Este 28 Nordeste 0 971.7 -- 63
2021-02-19 23:00:00 12.6 21 Este 28 Este 0 971.8 0.3 53
2021-02-19 22:00:00 16.6 10 Sudeste 24 Sudeste 0 972.1 -- 32
2021-02-19 21:00:00 16.9 14 Sudeste 30 Sudeste 0 972 -- 32
2021-02-19 20:00:00 17.4 18 Sudeste 30 Sudeste 0 971.5 -- 30
2021-02-19 19:00:00 16.4 14 Sudeste 18 Sur 0 971 -- 44
2021-02-19 18:00:00 19.7 3 Este 8 Norte 0 970.8 -- 39
2021-02-19 17:00:00 19.8 5 Norte 9 Norte 0 970.9 -1.7 33
2021-02-19 16:00:00 19.8 6 Nordeste 18 Este 0 971.1 -- 31
2021-02-19 15:00:00 20 14 Este 22 Este 0 971.7 -- 38
2021-02-19 14:00:00 18.5 6 Sur 15 Este 0 972.6 -- 43
2021-02-19 13:00:00 16.7 10 Este 15 Este 0 973.9 -- 48
2021-02-19 12:00:00 13.8 10 Este 24 Este 0 974.8 -- 59
2021-02-19 11:00:00 11 13 Nordeste 18 Nordeste 0 975.5 -- 67
2021-02-19 10:00:00 8.6 7 Este 13 Este 0 975.5 -- 79
2021-02-19 09:00:00 6.6 6 Este 13 Este 0 975.4 -- 84
2021-02-19 08:00:00 6.4 13 Este 18 Este 0 974.7 -- 83
2021-02-19 07:00:00 6 9 Este 13 Este 0 974.6 -- 84
2021-02-19 06:00:00 6.9 7 Este 11 Este 0 974.3 -- 86
2021-02-19 05:00:00 6.3 4 Este 9 Nordeste 0 974.1 -- 93
2021-02-19 04:00:00 6.2 5 Este 9 Oeste 0 974.3 -- 92
2021-02-19 03:00:00 6.5 3 Noroeste 8 Noroeste 0 974.6 -- 94
2021-02-19 02:00:00 7.1 0 Calma 9 Nordeste 0 974.6 -- 90
2021-02-19 01:00:00 7.9 4 Oeste 8 Oeste 0 974.7 -- 91
2021-02-19 00:00:00 9.1 2 Este 9 Este 0 974.8 -- 85
2021-02-18 23:00:00 9.3 0 Calma 5 Oeste 0 974.9 -- 86
2021-02-18 22:00:00 9.6 3 Norte 8 Sudoeste 0 974.5 -- 81
2021-02-18 21:00:00 11.9 2 Sudeste 5 Sudoeste 0 974.2 -- 74
2021-02-18 20:00:00 13.3 0 Calma 5 Oeste 0 973.7 -- 70
2021-02-18 19:00:00 14.8 4 Este 8 Nordeste 0 973.2 -- 60
2021-02-18 18:00:00 16.8 8 Norte 15 Nordeste 0 972.6 -- 54
2021-02-18 17:00:00 18.1 6 Nordeste 15 Este 0 972.3 -- 39
2021-02-18 16:00:00 17.1 10 Nordeste 17 Nordeste 0 972.4 -- 47
2021-02-18 15:00:00 16.9 12 Nordeste 18 Este 0 972.5 -- 51
2021-02-18 14:00:00 16.7 10 Este 22 Nordeste 0 972.7 -- 54
2021-02-18 13:00:00 15 15 Nordeste 26 Norte 0 973.6 -- 60
2021-02-18 12:00:00 13.1 14 Norte 22 Norte 0 973.4 -- 70
2021-02-18 11:00:00 10.1 17 Este 22 Este 0 973 -- 86
2021-02-18 10:00:00 7.4 11 Este 17 Este 0 973.3 -- 98
2021-02-18 09:00:00 4.9 4 Este 11 Este 0 972.8 -- 100
2021-02-18 08:00:00 3.6 5 Este 11 Este 0 972.3 -- 100
2021-02-18 07:00:00 3.8 0 Calma 8 Oeste 0 972.4 -- 100
2021-02-18 06:00:00 4.8 3 Sudoeste 11 Este 0 972.6 -- 100
2021-02-18 05:00:00 4.5 3 Sudeste 9 Este 0 972.9 -- 100
2021-02-18 04:00:00 4.6 6 Este 9 Este 0 973.1 -- 97
2021-02-18 03:00:00 7.1 8 Este 9 Este 0 973.6 -- 95
2021-02-18 02:00:00 6.6 8 Este 17 Este 0 973.8 -- 97
2021-02-18 01:00:00 7.2 10 Este 13 Este 0 974.1 -- 99
2021-02-18 00:00:00 5.9 3 Sudeste 8 Nordeste 0 974.5 -- 100
2021-02-17 23:00:00 5.6 4 Oeste 8 Oeste 0 975.1 -- 98
2021-02-17 22:00:00 6.7 2 Norte 8 Sudoeste 0 975.3 -- 97
2021-02-17 21:00:00 8.2 6 Sudoeste 8 Oeste 0 975.5 -- 97
2021-02-17 20:00:00 9.4 3 Este 11 Sudeste 0 975.3 -- 90
2021-02-17 19:00:00 11.2 9 Sudeste 11 Sudeste 0 975.6 -- 83
2021-02-17 18:00:00 12.8 10 Este 15 Este 0 976.2 -- 77
2021-02-17 17:00:00 13.6 14 Este 17 Este 0 976.2 -- 74
2021-02-17 16:00:00 13.2 8 Este 15 Este 0 977 -- 75
2021-02-17 15:00:00 11.6 6 Sudeste 11 Este 0 977.9 -- 83
2021-02-17 14:00:00 10.5 7 Este 15 Sudeste 0 978.8 -- 87
2021-02-17 13:00:00 9.2 14 Este 18 Sudeste 0 979.5 -- 95
2021-02-17 12:00:00 8.6 10 Este 15 Este 0 980.2 -- 98
2021-02-17 11:00:00 8 12 Este 15 Este 0 980.5 -- 99
2021-02-17 10:00:00 7.7 6 Este 9 Este 0 980.6 -- 95
2021-02-17 09:00:00 5.2 4 Este 5 Este 0 980.2 -- 100
2021-02-17 08:00:00 4.9 2 Noroeste 8 Noroeste 0 980.2 -- 100
2021-02-17 07:00:00 4.3 3 Noroeste 5 Norte 0 980.2 -- 100
2021-02-17 06:00:00 4.5 0 Calma 5 Oeste 0 980.4 -- 100
2021-02-17 05:00:00 4.2 0 Calma 5 Noroeste 0 980.6 -- 100
2021-02-17 04:00:00 4.5 0 Calma 5 Norte 0 980.9 -- 100
2021-02-17 03:00:00 5.5 0 Calma 5 Noroeste 0 981 -- 99
2021-02-17 02:00:00 5.9 5 Nordeste 9 Noroeste 0 981.3 -- 97
2021-02-17 01:00:00 8.3 6 Oeste 11 Sur 0 981.5 -- 93
2021-02-17 00:00:00 7.7 3 Sudeste 11 Norte 0 981.8 -- 97
2021-02-16 23:00:00 7.6 4 Sudoeste 9 Oeste 0 981.8 -- 96
2021-02-16 22:00:00 8.9 3 Oeste 11 Sudoeste 0 981.7 -- 91
2021-02-16 21:00:00 8.9 0 Calma 5 Sudoeste 0 981.3 -- 89
2021-02-16 20:00:00 10 0 Calma 8 Sur 0 981.2 -- 84
2021-02-16 19:00:00 11.3 4 Oeste 8 Sur 0 981.4 -- 81
2021-02-16 18:00:00 11.9 2 Noroeste 15 Sur 0 981 -- 76
2021-02-16 17:00:00 12.2 8 Sur 13 Sur 0 981.2 -- 74
2021-02-16 16:00:00 12.2 5 Sudeste 17 Sudeste 0 981.5 -- 73
2021-02-16 15:00:00 11.5 9 Sur 13 Sudeste 0 981.8 -- 75
2021-02-16 14:00:00 9.9 4 Noroeste 21 Este 0 982.7 -- 81
2021-02-16 13:00:00 9.4 17 Este 32 Este 0 983.1 -- 85
2021-02-16 12:00:00 9 23 Este 32 Este 0 983.2 -- 88
2021-02-16 11:00:00 8.4 23 Este 41 Este 0 983.2 -- 90
2021-02-16 10:00:00 7.9 28 Este 41 Este 0 982.6 -- 90
2021-02-16 09:00:00 7.6 24 Este 33 Este 0 982.7 -- 91
2021-02-16 08:00:00 7.7 23 Este 32 Este 0 982.4 -- 93
2021-02-16 07:00:00 8 24 Nordeste 30 Este 0 982.4 -- 93
2021-02-16 06:00:00 8.1 21 Este 28 Este 0 983.1 -- 93
2021-02-16 05:00:00 8.1 21 Este 30 Este 0 983.7 -- 93
2021-02-16 04:00:00 8.1 22 Este 33 Este 0 984.3 -- 93
2021-02-16 03:00:00 8.1 26 Este 37 Este 0 985 -- 92
2021-02-16 02:00:00 8.4 25 Este 39 Nordeste 0 984.9 -- 91
2021-02-16 01:00:00 8.4 29 Este 42 Este 0 985.2 -- 91
2021-02-16 00:00:00 8.3 29 Este 42 Este 0 985.5 -- 90
2021-02-15 23:00:00 8 31 Este 42 Este 0 985.6 -- 91
2021-02-15 22:00:00 7.4 24 Nordeste 32 Este 0 986.1 -- 93
2021-02-15 21:00:00 8.1 22 Nordeste 39 Nordeste 0 986.5 -- 91
2021-02-15 20:00:00 8.5 25 Este 35 Este 0 986.3 -- 88
2021-02-15 19:00:00 8.8 25 Este 35 Este 0 986.2 -- 86
2021-02-15 18:00:00 9.5 20 Este 33 Nordeste 0 986.3 -- 83
2021-02-15 17:00:00 9.5 21 Este 32 Este 0 986.9 -- 82
2021-02-15 16:00:00 9.2 21 Este 30 Este 0 987.5 -- 83
2021-02-15 15:00:00 8.5 24 Este 33 Este 0 988.1 -- 85
2021-02-15 14:00:00 8.4 21 Este 30 Este 0 988.7 -- 86
2021-02-15 13:00:00 7.9 22 Este 32 Este 0 989.5 -- 88
2021-02-15 12:00:00 7.4 23 Este 32 Este 0 990.1 -- 91
2021-02-15 11:00:00 7 20 Este 30 Este 0 990 -- 93
2021-02-15 10:00:00 6.7 21 Este 30 Este 0 990 -- 94
2021-02-15 09:00:00 6.4 22 Este 32 Este 0 989.6 -- 95
2021-02-15 08:00:00 6.5 24 Este 32 Este 0 988.8 -- 94
2021-02-15 07:00:00 6.6 20 Este 33 Este 0 988.8 -- 93
2021-02-15 06:00:00 6.8 21 Este 30 Este 0 988.8 -- 92
2021-02-15 05:00:00 6.9 23 Este 33 Este 0 988.6 -- 91
2021-02-15 04:00:00 7.1 21 Este 33 Este 0 988.7 -- 89
2021-02-15 03:00:00 7.3 24 Este 39 Este 0 988.8 -- 89
2021-02-15 02:00:00 7.4 27 Este 39 Este 0 988.8 -- 89
2021-02-15 01:00:00 7.6 29 Este 39 Este 0 988.1 -- 89
2021-02-15 00:00:00 7.7 27 Este 37 Este 0 987.8 -- 90
2021-02-14 23:00:00 8.4 28 Este 42 Este 0 987.7 -- 87
2021-02-14 22:00:00 9.3 32 Este 41 Este 0 987.4 -- 85
2021-02-14 21:00:00 10.1 29 Este 45 Este 0 987.3 -- 82
2021-02-14 20:00:00 9.8 25 Este 35 Este 0 987 -- 85
2021-02-14 19:00:00 10.6 26 Nordeste 39 Este 0 986.7 1.3 81
2021-02-14 18:00:00 12.3 28 Este 42 Este 0 985.9 0.4 67
2021-02-14 17:00:00 12.8 32 Este 46 Este 0 985.4 -- 67
2021-02-14 16:00:00 13.8 35 Este 46 Este 0 985.4 -- 64
2021-02-14 15:00:00 13.7 33 Este 42 Este 0 985.5 -- 63
2021-02-14 14:00:00 12.8 31 Este 42 Este 0 986.1 -- 68
2021-02-14 13:00:00 11.8 28 Este 39 Este 0 986.6 -- 72
2021-02-14 12:00:00 10.2 24 Este 33 Este 0 987.3 -- 76
2021-02-14 11:00:00 7.7 17 Este 21 Este 0 987.2 -- 85
2021-02-14 10:00:00 5.9 7 Este 11 Este 0 986.9 -- 96
2021-02-14 09:00:00 1.6 0 Calma 4 Oeste 0 986.6 -- 100
2021-02-14 08:00:00 1 0 Calma 8 Nordeste 0 985.8 -- 100
2021-02-14 07:00:00 1.3 3 Nordeste 8 Nordeste 0 985.4 -- 100
2021-02-14 06:00:00 1.7 2 Nordeste 5 Este 0 984.9 -- 99
2021-02-14 05:00:00 2.3 4 Este 8 Este 0 984.5 -- 98
2021-02-14 04:00:00 3.3 4 Sudoeste 8 Oeste 0 984.4 -- 98
2021-02-14 03:00:00 3.2 3 Este 5 Sudoeste 0 984.6 -- 96
2021-02-14 02:00:00 5.1 4 Sudoeste 9 Oeste 0 984.4 -- 92
2021-02-14 01:00:00 4.8 6 Oeste 9 Oeste 0 984.3 -- 92
2021-02-14 00:00:00 6.8 8 Sudoeste 9 Sudoeste 0 984.4 -- 89
2021-02-13 23:00:00 7.3 4 Oeste 8 Oeste 0 984.6 -- 88
2021-02-13 22:00:00 8.3 3 Noroeste 5 Norte 0 984.4 -- 86
2021-02-13 21:00:00 9.9 4 Oeste 8 Sudoeste 0 984.2 -- 79
2021-02-13 20:00:00 10.7 6 Oeste 11 Sudoeste 0 984.2 -- 75
2021-02-13 19:00:00 11.5 7 Sudoeste 9 Oeste 0 983.8 -- 67
2021-02-13 18:00:00 12.6 6 Sudoeste 13 Oeste 0 983.1 -- 61
2021-02-13 17:00:00 13 5 Oeste 17 Oeste 0 982.7 -- 58
2021-02-13 16:00:00 12.3 11 Oeste 21 Oeste 0 982.5 -- 64
2021-02-13 15:00:00 11.4 15 Oeste 33 Oeste 0 982.5 -- 70
2021-02-13 14:00:00 11.4 24 Oeste 35 Oeste 0 982.8 -- 70
2021-02-13 13:00:00 10.9 21 Oeste 39 Oeste 0 982.7 -- 73
2021-02-13 08:00:00 5.4 8 Sudoeste 13 Oeste 0 981.8 0.7 89
2021-02-13 07:00:00 5.8 10 Oeste 15 Oeste 0 981.5 0.4 89
2021-02-13 06:00:00 5.8 9 Sudoeste 15 Oeste 0 981.2 -0.3 88
2021-02-13 05:00:00 6.2 3 Sudoeste 18 Oeste 0 981.1 -0.2 86
2021-02-13 04:00:00 6.2 12 Oeste 15 Oeste 0 981.1 -0.2 89
2021-02-13 03:00:00 6.2 4 Noroeste 9 Oeste 0 981.5 0.4 90
2021-02-13 02:00:00 7.6 8 Oeste 17 Oeste 0 981.3 0.4 84
2021-02-13 01:00:00 9.5 9 Oeste 28 Oeste 0 981.3 0.7 75
2021-02-13 00:00:00 9.4 8 Oeste 18 Sudoeste 0 981.1 1.3 77
2021-02-12 23:00:00 10.8 10 Oeste 33 Oeste 0 980.9 1.5 70
2021-02-12 22:00:00 10.2 11 Noroeste 30 Sudoeste 0 980.6 1.7 76
2021-02-12 21:00:00 11 19 Oeste 30 Oeste 0 979.8 2.1 75
2021-02-12 20:00:00 11.9 18 Oeste 30 Oeste 0 979.4 2.3 71
2021-02-12 19:00:00 12.6 15 Oeste 32 Oeste 0 978.9 2.6 69
2021-02-12 18:00:00 13.1 19 Oeste 32 Oeste 0 977.7 2.1 71
2021-02-12 17:00:00 12.3 16 Oeste 32 Oeste 0 977.1 1.4 79
2021-02-12 16:00:00 12.9 24 Oeste 41 Oeste 0 976.3 0.9 71
2021-02-12 15:00:00 12.9 20 Oeste 41 Oeste 0 975.6 0.5 76
2021-02-12 14:00:00 13 19 Oeste 41 Oeste 0 975.7 1.4 77
2021-02-12 13:00:00 11.2 21 Oeste 30 Oeste 1.5 975.4 2 82
2021-02-12 12:00:00 10.8 15 Oeste 45 Oeste 0.7 975.1 2 90
2021-02-12 11:00:00 11.6 19 Oeste 33 Oeste 0 974.3 2 81
2021-02-12 10:00:00 9.6 2 Sur 11 Sudoeste 0 973.4 1.7 97
2021-02-12 09:00:00 8.6 3 Oeste 8 Oeste 0 973.1 -- 99
2021-02-12 08:00:00 8.8 5 Sudoeste 11 Oeste 0.2 972.3 -- 98
2021-02-12 07:00:00 8.7 5 Oeste 8 Oeste 0.2 971.7 -- 97
2021-02-12 06:00:00 8.9 0 Calma 9 Norte 0.3 972.1 -- 95
2021-02-12 05:00:00 8.8 8 Oeste 13 Oeste 0 972 -- 93
2021-02-12 04:00:00 9.8 6 Sudeste 13 Sudeste 0 972 -- 88
2021-02-12 03:00:00 9.7 9 Este 11 Este 0 972.6 -- 89
2021-02-12 02:00:00 8.5 6 Este 11 Este 0 972.9 -- 90
2021-02-12 01:00:00 8.6 8 Este 13 Este 0 972.9 -- 88
2021-02-12 00:00:00 9.5 10 Este 13 Este 0 973.2 -- 87
2021-02-11 23:00:00 9.1 7 Este 8 Este 0 973.8 -- 85
2021-02-11 22:00:00 10.7 3 Este 9 Este 0 974 -- 80
2021-02-11 21:00:00 11.6 6 Este 9 Este 0 974.3 -- 79
2021-02-11 20:00:00 12.6 8 Nordeste 15 Nordeste 0 974.3 -- 77
2021-02-11 19:00:00 14.3 7 Sudeste 11 Sudeste 0 973.9 -- 73
2021-02-11 18:00:00 16.5 3 Oeste 18 Oeste 0 973.6 -- 63
2021-02-11 17:00:00 17.2 10 Oeste 24 Oeste 0 973.7 -- 61
2021-02-11 16:00:00 17.1 14 Oeste 30 Oeste 0 973.6 -- 61
2021-02-11 15:00:00 17.6 10 Oeste 18 Oeste 0 973.9 -- 60
2021-02-11 14:00:00 15.7 8 Este 13 Sudeste 0 974.5 -- 62
2021-02-11 13:00:00 14.3 5 Sudeste 13 Nordeste 0 975 -- 64
2021-02-11 12:00:00 11.4 6 Nordeste 13 Nordeste 0 975.8 -- 68
2021-02-11 11:00:00 9.4 6 Este 11 Este 0 975.4 -- 72
2021-02-11 10:00:00 6.5 5 Este 8 Este 0 975.1 -- 86
2021-02-11 09:00:00 5.2 3 Este 9 Nordeste 0 975.1 -- 93
2021-02-11 08:00:00 5 5 Sudeste 9 Sudeste 0 974.6 -- 91
2021-02-11 07:00:00 4.7 5 Sudoeste 8 Sudoeste 0 974.8 -- 92
2021-02-11 06:00:00 4.3 0 Calma 9 Noroeste 0 974.5 -- 95
2021-02-11 05:00:00 4.1 4 Sudoeste 8 Sudoeste 0 974.2 -- 94
2021-02-11 04:00:00 2.9 4 Norte 8 Norte 0 974.5 -- 98
2021-02-11 03:00:00 2.4 4 Sudoeste 8 Oeste 0 974.4 -- 96
2021-02-11 02:00:00 3.3 4 Sudoeste 9 Norte 0 974.1 -- 95
2021-02-11 01:00:00 3.2 0 Calma 9 Norte 0 973.9 -- 95
2021-02-11 00:00:00 3.3 0 Calma 5 Sur 0 973.3 -- 90
2021-02-10 23:00:00 5 4 Oeste 8 Oeste 0 973.1 -- 89
2021-02-10 22:00:00 5.7 0 Calma 8 Norte 0 972.6 -- 84
2021-02-10 21:00:00 8.6 4 Oeste 11 Sudoeste 0 972.3 -- 69
2021-02-10 20:00:00 9.6 6 Sudoeste 13 Sudoeste 0 972 -- 65
2021-02-10 19:00:00 11.2 9 Oeste 30 Oeste 0 970.9 -- 56
2021-02-10 18:00:00 13.1 17 Oeste 37 Oeste 0 969.9 -- 48
2021-02-10 17:00:00 13.6 21 Oeste 37 Oeste 0 969.3 -- 47
2021-02-10 16:00:00 13.4 15 Oeste 37 Oeste 0 968.6 -- 49
2021-02-10 15:00:00 12.7 20 Oeste 39 Noroeste 0 968.2 -- 51
2021-02-10 14:00:00 12.6 19 Oeste 37 Oeste 0 967.8 -- 54
2021-02-10 13:00:00 10.8 17 Oeste 35 Oeste 0 967.5 -- 63
2021-02-10 12:00:00 10 18 Oeste 32 Oeste 0 966.9 -- 67
2021-02-10 11:00:00 8.7 15 Oeste 30 Oeste 0 965.7 -- 73
2021-02-10 10:00:00 7.6 10 Oeste 24 Oeste 0 964.4 -- 78
2021-02-10 09:00:00 7 14 Oeste 30 Oeste 0 962.9 -- 80
2021-02-10 08:00:00 5.2 10 Oeste 15 Sudoeste 0.1 961 -- 97
2021-02-10 07:00:00 5.1 5 Sudoeste 13 Oeste 2.3 959.6 -- 100
2021-02-10 06:00:00 4.4 0 Calma 11 Oeste 3 958.6 -- 100
2021-02-10 05:00:00 3.7 -- -- -- -- 0.2 957.9 -- 100
2021-02-10 04:00:00 3.6 3 Norte 8 Norte 0 957.7 -- 99
2021-02-10 03:00:00 4.5 3 Nordeste 9 Nordeste 0 958 -- 98
2021-02-10 02:00:00 4.1 8 Este 11 Sudoeste 0 958.7 -- 98
2021-02-10 01:00:00 4.2 9 Sudoeste 11 Sudoeste 0 958.6 -- 99
2021-02-10 00:00:00 4.9 3 Sur 8 Sur 0 958.3 -- 95
2021-02-09 23:00:00 6.2 7 Este 11 Sudeste 0.2 958.2 -- 91
2021-02-09 22:00:00 6.5 8 Nordeste 13 Nordeste 0 958 -- 88
2021-02-09 21:00:00 6.9 9 Este 15 Este 0 957.8 -- 84
2021-02-09 20:00:00 8.1 2 Oeste 9 Oeste 0 957.8 -- 74
2021-02-09 19:00:00 8.7 4 Sudoeste 17 Sudoeste 0 957.7 -- 71
2021-02-09 18:00:00 9.3 7 Oeste 17 Oeste 0 956.8 -- 73
2021-02-09 17:00:00 9.9 8 Oeste 15 Noroeste 0 956 -- 73
2021-02-09 16:00:00 9.3 12 Oeste 39 Oeste 0.2 955.6 -- 73
2021-02-09 15:00:00 12.1 28 Sudoeste 45 Sudoeste 0.3 956.9 -- 67
2021-02-09 14:00:00 12.2 3 Norte 9 Oeste 0 955.2 -- 68
2021-02-09 13:00:00 11 6 Nordeste 13 Este 0 956.1 -- 70
2021-02-09 12:00:00 9.9 6 Oeste 18 Este 0 956.9 -- 76
2021-02-09 11:00:00 8.1 15 Este 22 Nordeste 0 957.7 -- 83
2021-02-09 10:00:00 6.7 12 Este 17 Este 0 958.4 -- 93
2021-02-09 09:00:00 4.7 12 Este 13 Este 0 959.2 -- 96
2021-02-09 08:00:00 5.5 6 Este 11 Este 0 960 -- 92
2021-02-09 07:00:00 5.8 4 Este 8 Este 0 960.8 -- 93
2021-02-09 06:00:00 5.5 3 Nordeste 13 Nordeste 0 961.3 -- 92
2021-02-09 05:00:00 5 13 Nordeste 15 Nordeste 0 961.3 -- 93
2021-02-09 04:00:00 5.2 3 Sur 13 Norte 0 961.9 -- 91
2021-02-09 03:00:00 7.6 6 Sudoeste 13 Sur 0 962.3 -- 81
2021-02-09 02:00:00 7.2 8 Oeste 15 Oeste 0 962.3 -- 81
2021-02-09 01:00:00 7 10 Sudoeste 13 Oeste 0 962.1 -- 80
2021-02-09 00:00:00 7.5 9 Sudoeste 17 Oeste 0 961.8 -- 78
2021-02-08 23:00:00 8.6 8 Sudoeste 17 Oeste 0 961.3 -- 75
2021-02-08 22:00:00 8.4 12 Oeste 21 Sudoeste 0 960.6 -- 77
2021-02-08 21:00:00 8.9 11 Oeste 24 Oeste 0 960.1 -- 76
2021-02-08 20:00:00 9.2 14 Oeste 24 Oeste 0 959.7 -- 73
2021-02-08 19:00:00 10.5 18 Oeste 33 Oeste 0 958.5 -- 65
2021-02-08 18:00:00 11.4 17 Oeste 30 Oeste 0 957.5 -- 62
2021-02-08 17:00:00 12.8 19 Oeste 41 Sudoeste 0 956.8 -- 56
2021-02-08 16:00:00 12.6 21 Oeste 48 Oeste 0 956.6 -- 55
2021-02-08 15:00:00 12.3 23 Oeste 41 Oeste 0 956.4 -- 60
2021-02-08 14:00:00 11.7 20 Oeste 37 Oeste 0 956.7 -- 64
2021-02-08 13:00:00 12 19 Oeste 35 Noroeste 0 956.9 -- 64
2021-02-08 12:00:00 8.9 8 Oeste 15 Oeste 0 957.6 -- 84
2021-02-08 11:00:00 6.7 7 Oeste 11 Noroeste 0 957.5 -- 93
2021-02-08 10:00:00 5.6 6 Norte 8 Norte 0 957.6 -- 97
2021-02-08 09:00:00 5.2 3 Oeste 9 Sudeste 0 957.3 -- 97
2021-02-08 08:00:00 5.2 3 Sur 5 Sur 0 956.8 -- 97
2021-02-08 07:00:00 5 5 Sudeste 8 Sudeste 0 956.9 -- 98
2021-02-08 06:00:00 5 5 Este 9 Este 0 957.3 -- 97
2021-02-08 05:00:00 5.2 4 Este 9 Este 0.4 957.8 -- 97
2021-02-08 04:00:00 5.2 4 Este 9 Este 0 958.7 -- 95
2021-02-08 03:00:00 5.1 2 Este 17 Sur 0 958.9 -- 94
2021-02-08 02:00:00 6.5 12 Sur 17 Sur 0 959.4 -- 84
2021-02-08 01:00:00 6 3 Sudoeste 17 Sur 0 960.1 -- 89
2021-02-08 00:00:00 5.5 4 Oeste 8 Sudoeste 0 960.5 -- 92
2021-02-07 23:00:00 5.9 6 Nordeste 15 Oeste 0 961.2 -- 89
2021-02-07 22:00:00 6.4 6 Oeste 18 Oeste 0.3 961.6 -- 89
2021-02-07 21:00:00 6.7 11 Oeste 21 Oeste 1.2 962 -- 88
2021-02-07 20:00:00 7.4 13 Oeste 24 Oeste 0.2 962.3 -- 81
2021-02-07 19:00:00 8.8 10 Oeste 21 Oeste 0 962 -- 69
2021-02-07 18:00:00 9.7 12 Oeste 18 Oeste 0 961.7 -- 59
2021-02-07 17:00:00 9.8 10 Oeste 24 Oeste 0 961.9 -- 59
2021-02-07 16:00:00 9.6 16 Oeste 32 Oeste 0 962.2 -- 58
2021-02-07 15:00:00 9.9 17 Oeste 32 Oeste 0 962.7 -- 56
2021-02-07 14:00:00 9.8 17 Oeste 35 Oeste 0 963.8 -- 58
2021-02-07 13:00:00 8.6 19 Oeste 35 Oeste 0 964.7 -- 57
2021-02-07 12:00:00 8 15 Oeste 26 Oeste 0 965.6 -- 62
2021-02-07 11:00:00 7.2 12 Oeste 22 Oeste 0 965.5 -- 69
2021-02-07 10:00:00 5.3 12 Oeste 21 Noroeste 0 965.7 -- 76
2021-02-07 09:00:00 3.8 5 Oeste 15 Oeste 0 965.8 -- 84
2021-02-07 08:00:00 4.4 9 Oeste 24 Oeste 0 965.5 -- 79
2021-02-07 07:00:00 4.3 13 Oeste 24 Oeste 0 965.3 -- 81
2021-02-07 06:00:00 3.4 6 Oeste 17 Oeste 0 965.7 -- 90
2021-02-07 05:00:00 4.1 11 Oeste 21 Oeste 0 965.5 -- 87
2021-02-07 04:00:00 4 11 Oeste 17 Oeste 0 966 -- 89
2021-02-07 03:00:00 4.2 10 Oeste 15 Oeste 0 966.1 -- 89
2021-02-07 02:00:00 4.3 3 Noroeste 13 Oeste 0 966.3 -- 90
2021-02-07 01:00:00 5.3 6 Oeste 13 Oeste 0 966.3 -- 87
2021-02-07 00:00:00 6.2 8 Oeste 17 Oeste 0 966.1 -- 85
2021-02-06 23:00:00 6.3 9 Oeste 13 Oeste 0 965.9 -- 90
2021-02-06 22:00:00 6.4 10 Oeste 17 Oeste 0.5 965.4 -- 94
2021-02-06 21:00:00 6.8 6 Oeste 18 Oeste 0 964.8 -- 94
2021-02-06 20:00:00 6.9 13 Oeste 18 Sudoeste 0.1 964.2 -- 92
2021-02-06 19:00:00 7.1 11 Oeste 18 Oeste 0.1 963.8 -- 93
2021-02-06 18:00:00 7.7 12 Oeste 21 Oeste 0.4 962.9 -- 91
2021-02-06 17:00:00 8 14 Oeste 28 Sudoeste 0.9 962.2 -- 93
2021-02-06 16:00:00 8 14 Oeste 30 Oeste 1.1 961.3 -- 92
2021-02-06 15:00:00 8 16 Oeste 32 Oeste 0.6 961 -- 90
2021-02-06 14:00:00 8.3 18 Oeste 39 Oeste 1.3 960.6 -- 92
2021-02-06 13:00:00 8.6 21 Oeste 33 Oeste 1.3 960.4 -- 91
2021-02-06 12:00:00 8.8 17 Oeste 28 Oeste 1.8 960.1 -- 93
2021-02-06 11:00:00 9.4 8 Oeste 13 Oeste 0.7 959.3 -- 98
2021-02-06 10:00:00 9.1 4 Oeste 5 Oeste 0 959.1 -- 96
2021-02-06 09:00:00 9.2 0 Calma 4 Sudeste 0 958.9 -- 95
2021-02-06 08:00:00 9.1 0 Calma 9 Nordeste 0 958.6 -- 95
2021-02-06 07:00:00 8.9 5 Este 8 Este 0 958.5 -- 94
2021-02-06 06:00:00 8.7 6 Este 9 Este 0 958.7 -- 94
2021-02-06 05:00:00 8.7 10 Nordeste 15 Nordeste 0 958.8 -- 94
2021-02-06 04:00:00 9.4 8 Este 32 Este 0 959.4 -- 90
2021-02-06 03:00:00 10 21 Este 30 Este 0 959.9 -- 88
2021-02-06 02:00:00 10.2 15 Este 22 Este 0 960.9 -- 87
2021-02-06 01:00:00 10.4 21 Este 26 Este 0 961.7 -- 88
2021-02-06 00:00:00 10.3 17 Este 21 Este 0 961.6 -- 89
2021-02-05 23:00:00 10.7 12 Este 15 Este 0 962.2 -- 88
2021-02-05 22:00:00 10.7 12 Este 15 Este 0 961.8 -- 87
2021-02-05 21:00:00 10.4 10 Nordeste 21 Este 0 961.9 -- 87
2021-02-05 20:00:00 11 11 Este 21 Nordeste 0 962.2 -- 84
2021-02-05 19:00:00 11.4 14 Este 22 Este 0 962 -- 80
2021-02-05 18:00:00 12.8 20 Este 28 Este 0 961.7 -- 74
2021-02-05 17:00:00 14 23 Este 35 Este 0 962.1 -- 69
2021-02-05 16:00:00 15.1 23 Este 39 Este 0 962.3 -- 64
2021-02-05 15:00:00 15.5 25 Este 35 Este 0 962.9 -- 63
2021-02-05 14:00:00 15.1 18 Este 24 Nordeste 0 963.9 -- 65
2021-02-05 13:00:00 13.6 7 Norte 11 Norte 0 964.9 -- 75
2021-02-05 12:00:00 11.9 4 Noroeste 9 Noroeste 0 965.6 -- 83
2021-02-05 11:00:00 10.4 2 Oeste 9 Oeste 0 966.5 -- 89
2021-02-05 10:00:00 8.5 9 Oeste 13 Oeste 0 966.9 -- 97
2021-02-05 09:00:00 7 5 Oeste 8 Oeste 0 967.2 -- 100
2021-02-05 08:00:00 7 8 Sudoeste 9 Sudoeste 0 967.2 -- 100
2021-02-05 07:00:00 6.6 0 Calma 9 Nordeste 0 967.1 -- 100
2021-02-05 06:00:00 7.4 5 Oeste 13 Sudoeste 0 967.6 -- 99
2021-02-05 05:00:00 6.8 6 Oeste 9 Oeste 0 967.5 -- 100
2021-02-05 04:00:00 7.2 5 Noroeste 15 Sudeste 0.1 967.2 -- 99
2021-02-05 03:00:00 6.1 10 Nordeste 18 Nordeste 0.2 967.6 -- 100
2021-02-05 02:00:00 6.2 4 Noroeste 9 Oeste 0 968 -- 99
2021-02-05 01:00:00 6.7 2 Sur 5 Sur 0 968.3 -- 97
2021-02-05 00:00:00 8 3 Sudoeste 9 Este 0 968.1 -- 94
2021-02-04 23:00:00 9.8 5 Oeste 17 Oeste 0 967.5 -- 89
2021-02-04 22:00:00 10.8 10 Sudoeste 15 Oeste 0 966.8 -- 81
2021-02-04 21:00:00 11.6 7 Sudeste 13 Este 0 966.5 -- 80
2021-02-04 20:00:00 12.8 11 Este 21 Sudeste 0 966.1 -- 75
2021-02-04 19:00:00 13.1 10 Este 24 Este 0 965.8 -- 72
2021-02-04 18:00:00 14.7 14 Este 24 Este 0 965.6 -- 71
2021-02-04 17:00:00 15.7 19 Este 28 Este 0 965.3 -- 67
2021-02-04 16:00:00 15.8 23 Este 32 Este 0 965.4 -- 65
2021-02-04 15:00:00 15.7 9 Este 15 Este 0 966.3 -- 68
2021-02-04 14:00:00 14.4 12 Este 17 Este 0 967.4 -- 78
2021-02-04 13:00:00 12.7 13 Nordeste 21 Este 0 968.3 -- 84
2021-02-04 12:00:00 11.5 13 Este 17 Este 0 969 -- 90
2021-02-04 11:00:00 10.6 8 Este 13 Este 0 969.3 -- 94
2021-02-04 10:00:00 9.3 2 Nordeste 8 Oeste 0 969.5 -- 98
2021-02-04 09:00:00 8.4 3 Sudoeste 5 Sudoeste 0 969.4 -- 100
2021-02-04 08:00:00 8.3 0 Calma 8 Sudoeste 0 969.2 -- 99
2021-02-04 07:00:00 8 3 Oeste 5 Noroeste 0 968.9 -- 100
2021-02-04 06:00:00 8.1 4 Oeste 8 Oeste 0 968.9 -- 100
2021-02-04 05:00:00 7.9 3 Oeste 5 Oeste 0 968.7 -- 100
2021-02-04 04:00:00 8.4 0 Calma 5 Oeste 0 969.1 -- 100
2021-02-04 03:00:00 8.5 3 Noroeste 5 Noroeste 0 969.5 -- 100
2021-02-04 02:00:00 8.7 0 Calma 5 Sudoeste 0 969.5 -- 100
2021-02-04 01:00:00 8.3 2 Este 9 Oeste 0 969.7 -- 97
2021-02-04 00:00:00 9.4 7 Sudoeste 11 Sudoeste 0 969.8 -- 98
2021-02-03 23:00:00 9.5 0 Calma 8 Oeste 0 969.6 -- 99
2021-02-03 22:00:00 9 2 Noroeste 8 Este 0 969.9 -- 99
2021-02-03 21:00:00 9.4 4 Nordeste 13 Este 0 969.7 -- 95
2021-02-03 20:00:00 10.8 5 Este 9 Este 0.6 970 -- 91
2021-02-03 19:00:00 12.2 0 Calma 8 Este 0.2 970.1 -- 85
2021-02-03 18:00:00 13.2 2 Este 5 Este 0 969.4 -- 79
2021-02-03 17:00:00 14 4 Este 9 Nordeste 0 969.3 -- 75
2021-02-03 16:00:00 14.5 8 Nordeste 11 Este 0 969.4 -- 67
2021-02-03 15:00:00 14.5 11 Este 15 Este 0 969.4 -- 71
2021-02-03 14:00:00 13.4 5 Nordeste 13 Este 0 969.6 -- 74
2021-02-03 13:00:00 13.2 11 Este 18 Este 0 969.9 -- 73
2021-02-03 12:00:00 11.6 13 Sudeste 21 Sudeste 0 970 -- 77
2021-02-03 11:00:00 10.5 13 Sudeste 17 Sudeste 0 969.7 -- 82
2021-02-03 10:00:00 8.8 8 Este 13 Este 0 969.3 -- 90
2021-02-03 09:00:00 5.3 6 Este 13 Sudoeste 0 968.4 -- 99
2021-02-03 08:00:00 4.9 4 Noroeste 9 Oeste 0 967.8 -- 98
2021-02-03 07:00:00 5.4 4 Norte 11 Sudeste 0 967.3 -- 97
2021-02-03 06:00:00 6.3 3 Sudoeste 15 Nordeste 0 967.2 -- 97
2021-02-03 05:00:00 5.5 3 Noroeste 11 Sudoeste 0 966.9 -- 96
2021-02-03 04:00:00 6.8 8 Este 15 Este 0 967.2 -- 95
2021-02-03 03:00:00 4.7 0 Calma 5 Este 0 967.7 -- 98
2021-02-03 02:00:00 5.1 0 Calma 8 Oeste 0 968.1 -- 97
2021-02-03 01:00:00 6.1 4 Oeste 13 Sudoeste 0 968.6 -- 94
2021-02-03 00:00:00 6.6 5 Sudoeste 9 Oeste 0 969 -- 94
2021-02-02 23:00:00 7.8 5 Sudoeste 8 Sudoeste 0 969.2 -- 90
2021-02-02 22:00:00 8.5 3 Norte 11 Este 0 969.3 -- 87
2021-02-02 21:00:00 8.8 5 Norte 9 Norte 0 969.3 -- 86
2021-02-02 20:00:00 10.7 4 Oeste 9 Norte 0 969.6 -- 79
2021-02-02 19:00:00 13.4 0 Calma 9 Oeste 0 969.8 -- 66
2021-02-02 18:00:00 15.8 6 Oeste 22 Oeste 0 969.7 -- 57
2021-02-02 17:00:00 16.8 13 Oeste 33 Oeste 0 970 -- 53
2021-02-02 16:00:00 17.8 15 Oeste 28 Oeste 0 970.2 -- 52
2021-02-02 15:00:00 18.1 16 Oeste 28 Oeste 0 970.7 -- 49
2021-02-02 14:00:00 18.1 10 Oeste 18 Oeste 0 970.9 -- 49
2021-02-02 13:00:00 16.8 9 Oeste 26 Oeste 0 971.6 -- 55
2021-02-02 12:00:00 16.7 14 Oeste 28 Noroeste 0 972.6 -- 56
2021-02-02 11:00:00 16.1 12 Oeste 18 Oeste 0 972.5 -- 58
2021-02-02 10:00:00 13.9 12 Oeste 21 Oeste 0 972.3 -- 67
2021-02-02 09:00:00 7.3 5 Norte 13 Oeste 0 972.2 -- 91
2021-02-02 08:00:00 5.7 3 Noroeste 8 Norte 0 972.1 -- 95
2021-02-02 07:00:00 6.4 4 Nordeste 8 Nordeste 0 971.9 -- 90
2021-02-02 06:00:00 10.3 8 Oeste 17 Noroeste 0 971.6 -- 82
2021-02-02 05:00:00 9.3 4 Sur 18 Oeste 0 971.4 -- 84
2021-02-02 04:00:00 11.4 5 Oeste 21 Oeste 0 971.6 -- 76
2021-02-02 03:00:00 10.3 4 Oeste 9 Sudoeste 0 972.3 -- 80
2021-02-02 02:00:00 11.9 7 Oeste 21 Sudoeste 0 972.2 -- 73
2021-02-02 01:00:00 12.5 15 Oeste 24 Oeste 0 972.2 -- 70
2021-02-02 00:00:00 13 12 Oeste 42 Oeste 0 971.8 -- 68
2021-02-01 23:00:00 13.3 14 Oeste 24 Oeste 0 971.4 -- 66
2021-02-01 22:00:00 14.1 9 Sudoeste 17 Oeste 0 971.4 -- 65
2021-02-01 21:00:00 14.6 9 Sudoeste 21 Oeste 0 971.3 -- 62
2021-02-01 20:00:00 14.8 12 Oeste 22 Noroeste 0 971.2 -- 63
2021-02-01 19:00:00 15.2 9 Oeste 26 Oeste 0 970.5 -- 59
2021-02-01 18:00:00 16.4 15 Oeste 30 Oeste 0 969.8 -- 54
2021-02-01 17:00:00 16.6 17 Oeste 32 Oeste 0 969.3 -- 56
2021-02-01 16:00:00 17.4 20 Oeste 35 Oeste 0 968.9 -- 53
2021-02-01 15:00:00 15.8 16 Oeste 33 Noroeste 0 968.8 -- 57
2021-02-01 14:00:00 15.2 18 Oeste 32 Noroeste 0 968.9 -- 58
2021-02-01 13:00:00 14.7 20 Oeste 50 Oeste 0 969 -- 58
2021-02-01 12:00:00 14.6 22 Oeste 39 Oeste 0 968.5 -- 57
2021-02-01 11:00:00 13.5 18 Oeste 35 Oeste 0 968.4 -- 59
2021-02-01 10:00:00 11.7 18 Oeste 33 Oeste 0 967.6 -- 63
2021-02-01 09:00:00 10.6 17 Oeste 32 Oeste 0 967 -- 67
2021-02-01 08:00:00 10.4 20 Oeste 39 Oeste 0 965.8 -- 67
2021-02-01 07:00:00 10.7 22 Oeste 41 Oeste 0 965.6 -- 66
2021-02-01 06:00:00 10.9 18 Oeste 37 Oeste 0 965.5 -- 65
2021-02-01 05:00:00 11.4 22 Oeste 45 Oeste 0 965 -- 64
2021-02-01 04:00:00 11.9 23 Oeste 46 Oeste 0 964.6 -- 61
2021-02-01 03:00:00 12.3 22 Oeste 42 Oeste 0 964.3 -- 60
2021-02-01 02:00:00 12.7 20 Oeste 45 Noroeste 0 964 -- 61
2021-02-01 01:00:00 13.1 22 Oeste 50 Oeste 0 963.6 -- 61
2021-02-01 00:00:00 13.5 21 Oeste 46 Noroeste 0 962.9 -- 60
2021-01-31 23:00:00 15.5 28 Oeste 59 Oeste 0 962 -- 49
2021-01-31 22:00:00 16.1 25 Oeste 52 Sudoeste 0 962.2 -- 47
2021-01-31 21:00:00 14.3 14 Oeste 33 Oeste 0 962.3 -- 57
2021-01-31 20:00:00 10.3 6 Oeste 13 Oeste 0 962.5 -- 74
2021-01-31 19:00:00 12.5 5 Sudoeste 13 Sudeste 0 963.1 -- 73
2021-01-31 18:00:00 14.9 6 Sudoeste 30 Oeste 0 963.5 -- 67
2021-01-31 17:00:00 15.7 16 Oeste 39 Noroeste 0 963.6 -- 62
2021-01-31 16:00:00 15.4 19 Oeste 52 Oeste 0 964.2 -- 63
2021-01-31 15:00:00 15.6 25 Oeste 50 Oeste 0 964.5 -- 62
2021-01-31 14:00:00 15.4 26 Oeste 48 Oeste 0 965.5 -- 61
2021-01-31 13:00:00 12.4 19 Oeste 32 Sudoeste 0 966.6 -- 70
2021-01-31 12:00:00 10.6 13 Oeste 30 Oeste 0 967.5 -- 76
2021-01-31 11:00:00 9.6 10 Sudoeste 24 Oeste 0 968.1 -- 77
2021-01-31 10:00:00 9.1 8 Oeste -- -- -- 968.2 -- 72
2021-01-31 09:00:00 -- -- -- -- -- -- -- -- --
2021-01-31 08:00:00 -- -- -- -- -- -- -- -- --
2021-01-31 07:00:00 -- -- -- -- -- -- -- -- --
2021-01-31 06:00:00 -- -- -- -- -- -- -- -- --
2021-01-31 05:00:00 -- -- -- -- -- -- -- -- --
2021-01-31 04:00:00 -- -- -- -- -- -- -- -- --
2021-01-31 03:00:00 -- -- -- -- -- -- -- -- --
2021-01-31 02:00:00 -- -- -- -- -- -- -- -- --
2021-01-31 01:00:00 -- -- -- -- -- -- -- -- --
2021-01-31 00:00:00 -- -- -- -- -- -- -- -- --
2021-01-30 23:00:00 -- -- -- -- -- -- -- -- --
2021-01-30 22:00:00 -- -- -- -- -- -- -- -- --
2021-01-30 21:00:00 -- -- -- -- -- -- -- -- --
2021-01-30 20:00:00 -- -- -- -- -- -- -- -- --
2021-01-30 19:00:00 -- -- -- -- -- -- -- -- --
2021-01-30 18:00:00 -- -- -- -- -- -- -- -- --
2021-01-30 17:00:00 -- -- -- -- -- -- -- -- --
2021-01-30 16:00:00 -- -- -- -- -- -- -- -- --
2021-01-30 15:00:00 -- -- -- -- -- -- -- -- --
2021-01-30 14:00:00 14.3 36 Oeste 68 Oeste 0 964.5 -- 42
2021-01-30 13:00:00 14.2 30 Oeste 59 Oeste 0 965.1 -- 50
2021-01-30 12:00:00 13.8 27 Oeste 50 Oeste 0 965.3 -- 55
2021-01-30 11:00:00 13.4 23 Oeste 37 Sudoeste 0 965.5 -- 59
2021-01-30 10:00:00 11.6 8 Oeste 24 Oeste 0 965.8 -- 75
2021-01-30 09:00:00 9.9 10 Oeste 17 Oeste 0 965.9 -- 81
2021-01-30 08:00:00 8.4 6 Este 13 Noroeste 0 965.7 -- 88
2021-01-30 07:00:00 9.1 7 Oeste 22 Oeste 0 966.3 -- 91
2021-01-30 06:00:00 10 9 Oeste 41 Sudoeste 2.4 968 -- 85
2021-01-30 05:00:00 7.5 7 Sudoeste 15 Este 0.4 967.7 -- 99
2021-01-30 04:00:00 7.1 5 Norte 11 Nordeste 0 968.3 -- 98
2021-01-30 03:00:00 7.2 8 Oeste 13 Noroeste 0 969.4 -- 98
2021-01-30 02:00:00 6.8 8 Oeste 11 Oeste 0 969.4 -- 99
2021-01-30 01:00:00 6.8 4 Sudoeste 9 Sudoeste 0 969.4 -- 99
2021-01-30 00:00:00 7.1 3 Oeste 5 Noroeste 0 970.7 -- 97
2021-01-29 23:00:00 7.9 3 Sudoeste 5 Sur 0 971.5 -- 96
2021-01-29 22:00:00 8.6 0 Calma 4 Sudoeste 0 972.3 -- 93
2021-01-29 21:00:00 9.6 0 Calma 5 Norte 0 972.7 -- 88
2021-01-29 20:00:00 12 5 Este 9 Norte 0 973.8 -- 78
2021-01-29 19:00:00 14.1 3 Sudoeste 11 Oeste 0 974.1 -- 71
2021-01-29 18:00:00 15.6 7 Oeste 24 Noroeste 0 974.4 -- 66
2021-01-29 17:00:00 16.1 15 Oeste 37 Noroeste 0 974.4 -- 64
2021-01-29 16:00:00 17.6 18 Oeste 39 Oeste 0 974.7 -- 59
2021-01-29 15:00:00 17.8 15 Oeste 37 Oeste 0 974.7 -- 60
2021-01-29 14:00:00 17.6 17 Oeste 33 Oeste 0 975.6 -- 60
2021-01-29 13:00:00 16.9 14 Oeste 30 Oeste 0 976.4 -- 63
2021-01-29 12:00:00 15.4 15 Oeste 33 Oeste 0 977.3 -- 68
2021-01-29 11:00:00 15.6 10 Oeste 24 Oeste 0 976.9 -- 68
2021-01-29 10:00:00 14.1 15 Oeste 24 Oeste 0 976.9 -- 73
2021-01-29 09:00:00 11.7 6 Norte 11 Norte 0 976.8 -- 82
2021-01-29 08:00:00 13.2 7 Oeste 22 Sudoeste 0 976.3 -- 77
2021-01-29 07:00:00 13.9 14 Sudoeste 30 Sudoeste 0 976.2 -- 73
2021-01-29 06:00:00 14.3 12 Sudoeste 32 Oeste 0 975.7 -- 73
2021-01-29 05:00:00 14.6 17 Sudoeste 28 Sudoeste 0 975.7 -- 73
2021-01-29 04:00:00 13.7 9 Sudoeste 18 Sudoeste 0 975.8 -- 80
2021-01-29 03:00:00 12 8 Sudoeste 13 Sur 0 976.3 -- 89
2021-01-29 02:00:00 9.3 6 Este 11 Este 0 976.5 -- 98
2021-01-29 01:00:00 8.9 6 Este 15 Nordeste 0 976.4 -- 98
2021-01-29 00:00:00 9.8 5 Sudoeste 9 Oeste 0 976.6 -- 97
2021-01-28 23:00:00 10 6 Oeste 9 Oeste 0 976.3 -- 94
2021-01-28 22:00:00 11.2 4 Nordeste 13 Sudoeste 0 976.5 -- 88
2021-01-28 21:00:00 15.1 8 Sudoeste 17 Oeste 0 976.4 -- 75
2021-01-28 20:00:00 15.1 8 Oeste 15 Sudoeste 0 976.8 -- 75
2021-01-28 19:00:00 16.2 12 Oeste 26 Oeste 0 976.7 -- 71
2021-01-28 18:00:00 17.1 13 Oeste 22 Oeste 0 976.7 -- 67
2021-01-28 17:00:00 18.4 12 Oeste 30 Oeste 0 976.9 -- 63
2021-01-28 16:00:00 18.3 17 Oeste 39 Oeste 0 977.2 -- 63
2021-01-28 15:00:00 18.2 13 Oeste 32 Noroeste 0 977.4 -- 62
2021-01-28 14:00:00 17.7 14 Oeste 41 Oeste 0 978.6 -- 63
2021-01-28 13:00:00 17 17 Oeste 30 Oeste 0 979 -- 65
2021-01-28 12:00:00 15.3 8 Oeste 11 Oeste 0 979.9 -- 75
2021-01-28 11:00:00 13.4 5 Oeste 15 Oeste 0 980.1 -- 83
2021-01-28 10:00:00 7.4 9 Sudoeste 13 Sudoeste 0 979.8 -- 99
2021-01-28 09:00:00 4.6 3 Nordeste 9 Este 0 979.5 -- 100
2021-01-28 08:00:00 5.4 3 Oeste 5 Oeste 0 979.1 -- 100
2021-01-28 07:00:00 5.1 3 Sudeste 9 Nordeste 0 978.9 -- 100
2021-01-28 06:00:00 5.7 2 Norte 13 Norte 0 979.1 -- 100
2021-01-28 05:00:00 6.2 5 Nordeste 13 Norte 0 979.4 -- 100
2021-01-28 04:00:00 6.6 0 Calma 5 Noroeste 0 980 -- 100
2021-01-28 03:00:00 6.7 2 Noroeste 4 Norte 0 980.5 -- 99
2021-01-28 02:00:00 7.2 0 Calma 5 Nordeste 0 981.1 -- 100
2021-01-28 01:00:00 7.2 0 Calma 4 Este 0 981.3 -- 97
2021-01-28 00:00:00 8.6 0 Calma 4 Noroeste 0 981.6 -- 97
2021-01-27 23:00:00 9.6 3 Oeste 5 Oeste 0 981.3 -- 97
2021-01-27 22:00:00 10.7 4 Oeste 5 Oeste 0 981.1 -- 94
2021-01-27 21:00:00 11.4 4 Este 9 Norte 0 981.1 -- 90
2021-01-27 20:00:00 14.2 4 Este 13 Oeste 0 981 -- 78
2021-01-27 19:00:00 16.4 6 Oeste 18 Oeste 0 980.7 -- 72
2021-01-27 18:00:00 18.1 7 Oeste 22 Oeste 0 980.4 -- 66
2021-01-27 17:00:00 19.1 10 Oeste 22 Oeste 0 980.4 -- 63
2021-01-27 16:00:00 18.8 12 Oeste 24 Sudoeste 0 980.5 -- 65
2021-01-27 15:00:00 17.9 12 Oeste 28 Oeste 0 980.5 -- 67
2021-01-27 14:00:00 18 17 Oeste 33 Oeste 0 980.9 -- 66
2021-01-27 13:00:00 17.5 22 Oeste 37 Oeste 0 981.6 -- 67
2021-01-27 12:00:00 16.7 19 Oeste 35 Oeste 0 981.9 -- 70
2021-01-27 11:00:00 15.9 17 Oeste 26 Oeste 0 981.4 -- 73
2021-01-27 10:00:00 13.8 8 Oeste 18 Oeste 0 981 -- 83
2021-01-27 09:00:00 13 9 Oeste 18 Sudoeste 0 980.4 -- 86
2021-01-27 08:00:00 13.2 11 Oeste 22 Oeste 0 979.8 -- 86
2021-01-27 07:00:00 13.3 10 Oeste 24 Oeste 0 979.3 -- 86
2021-01-27 06:00:00 12.8 12 Oeste 21 Noroeste 0 979.2 -- 88
2021-01-27 05:00:00 12.9 14 Oeste 22 Oeste 0 979.1 -- 88
2021-01-27 04:00:00 12.3 8 Oeste 24 Oeste 0 979.2 -- 90
2021-01-27 03:00:00 12.8 13 Oeste 22 Oeste 0 979.1 -- 87
2021-01-27 02:00:00 12.7 13 Oeste 26 Oeste 0 979.3 -- 89
2021-01-27 01:00:00 12.5 13 Oeste 24 Sudoeste 0.2 979.4 -- 88
2021-01-27 00:00:00 12.9 14 Oeste 24 Oeste 0 979.9 -- 83
2021-01-26 23:00:00 12.5 11 Oeste 18 Oeste 0 979.7 -- 85
2021-01-26 22:00:00 12.5 8 Oeste 18 Sudoeste 0 979.5 -- 84
2021-01-26 21:00:00 12.9 9 Oeste 17 Oeste 0 979.7 -- 82
2021-01-26 20:00:00 13 9 Oeste 17 Oeste 0 979.7 -- 81
2021-01-26 19:00:00 13.2 9 Oeste 26 Sudoeste 0 979.2 -- 80
2021-01-26 18:00:00 13.9 12 Oeste 22 Oeste 0 979 -- 77
2021-01-26 17:00:00 14.5 12 Oeste 21 Sudoeste 0 978.7 -- 76
2021-01-26 16:00:00 14.5 13 Sudoeste 24 Oeste 0 978.7 -- 75
2021-01-26 15:00:00 14.4 15 Oeste 28 Oeste 0 978.5 -- 72
2021-01-26 14:00:00 13.4 18 Oeste 26 Oeste 0 978.8 -- 72
2021-01-26 13:00:00 11.9 10 Oeste 15 Oeste 0 979.3 -- 76
2021-01-26 12:00:00 8.4 2 Oeste 8 Nordeste 0 980.1 -- 82
2021-01-26 11:00:00 5.8 6 Nordeste 8 Nordeste 0 980.2 -- 92
2021-01-26 10:00:00 2.9 4 Nordeste 8 Este 0 979.8 -- 98
2021-01-26 09:00:00 0.9 3 Sudoeste -- -- 0 979.4 -- 100
2021-01-26 08:00:00 0.3 2 Norte 5 Norte 0 978.7 -- 100
2021-01-26 07:00:00 0.6 3 Este 8 Nordeste 0 978.6 -- 100
2021-01-26 06:00:00 2 6 Sudoeste 8 Sudoeste 0 978.4 -- 100
2021-01-26 05:00:00 2.1 4 Sudoeste 8 Sudoeste 0 978 -- 100
2021-01-26 04:00:00 2.3 0 Calma 8 Sudoeste 0 977.8 -- 98
2021-01-26 03:00:00 4 7 Sudoeste 11 Sudoeste 0 977.9 -- 97
2021-01-26 02:00:00 3.7 2 Sudoeste 8 Oeste 0 977.5 -- 98
2021-01-26 01:00:00 4.9 5 Oeste 11 Sudoeste 0 977.2 -- 96
2021-01-26 00:00:00 6.3 10 Sudoeste 13 Oeste 0 976.8 -- 90
2021-01-25 23:00:00 7.2 7 Oeste 13 Sudoeste 0 976.6 -- 86
2021-01-25 22:00:00 6.7 6 Oeste 13 Oeste 0 975.5 -- 91
2021-01-25 21:00:00 7.4 3 Noroeste 13 Oeste 0 974.2 -- 90
2021-01-25 20:00:00 8.7 6 Oeste 17 Oeste 0 973.6 -- 87
2021-01-25 19:00:00 9.1 10 Oeste 15 Oeste 0 972.6 -- 87
2021-01-25 18:00:00 9.7 8 Noroeste 22 Oeste 0 971.5 -- 86
2021-01-25 17:00:00 9.6 12 Oeste 22 Oeste 0 970 -- 86
2021-01-25 16:00:00 9.3 11 Oeste 17 Oeste 0 969.4 -- 90
2021-01-25 15:00:00 8.9 9 Oeste 15 Oeste 0 968.7 -- 94
2021-01-25 14:00:00 8.5 7 Oeste 13 Oeste 0.4 968.5 -- 97
2021-01-25 13:00:00 8.1 8 Oeste 13 Oeste 1.1 968.5 -- 98
2021-01-25 12:00:00 7.4 5 Sudoeste 8 Sudoeste 2.2 968.4 -- 99
2021-01-25 11:00:00 7 3 Norte -- -- 3.1 967.5 -- 99
2021-01-25 10:00:00 6.8 4 Nordeste 9 Nordeste 3.5 966.9 -- 100
2021-01-25 09:00:00 7.2 8 Este 13 Este 3.2 966.4 -- 98
2021-01-25 08:00:00 6.9 7 Este 11 Este 3.7 966.1 -- 98
2021-01-25 07:00:00 7.7 3 Sur 9 Sur 2.4 965.9 -- 92
2021-01-25 06:00:00 8 4 Sudoeste 13 Sudoeste 2.2 966.6 -- 91
2021-01-25 05:00:00 8.3 7 Sudoeste 13 Oeste 1.2 967.1 -- 89
2021-01-25 04:00:00 9 9 Oeste 18 Oeste 0.3 967.6 -- 82
2021-01-25 03:00:00 9.8 10 Oeste 21 Oeste 0 968 -- 75
2021-01-25 02:00:00 9.5 9 Oeste 17 Sudoeste 0 968 -- 72
2021-01-25 01:00:00 8.3 11 Oeste 18 Sudoeste 0 968.1 -- 78
2021-01-25 00:00:00 8.2 7 Norte 11 Oeste 0 968.6 -- 76